sensor_id;sensor_type;location;lat;lon;timestamp;temperature;humidity
21563;DHT22;10942;47.894;11.424;2023-05-21T00:04:46;13.20;99.90
21563;DHT22;10942;47.894;11.424;2023-05-21T00:07:11;13.20;99.90
21563;DHT22;10942;47.894;11.424;2023-05-21T00:12:07;13.10;99.90
21563;DHT22;10942;47.894;11.424;2023-05-21T00:14:34;13.10;99.90
21563;DHT22;10942;47.894;11.424;2023-05-21T00:17:00;13.10;99.90
21563;DHT22;10942;47.894;11.424;2023-05-21T00:43:49;12.90;99.90
21563;DHT22;10942;47.894;11.424;2023-05-21T00:46:17;12.50;99.90
21563;DHT22;10942;47.894;11.424;2023-05-21T00:48:47;12.40;99.90
21563;DHT22;10942;47.894;11.424;2023-05-21T00:51:14;12.40;99.90
21563;DHT22;10942;47.894;11.424;2023-05-21T00:53:40;12.40;99.90
21563;DHT22;10942;47.894;11.424;2023-05-21T00:56:06;12.40;99.90
21563;DHT22;10942;47.894;11.424;2023-05-21T00:58:32;12.40;99.90
21563;DHT22;10942;47.894;11.424;2023-05-21T03:36:30;12.30;99.90
21563;DHT22;10942;47.894;11.424;2023-05-21T03:38:56;11.70;99.90
21563;DHT22;10942;47.894;11.424;2023-05-21T03:41:22;11.70;99.90
21563;DHT22;10942;47.894;11.424;2023-05-21T03:43:53;11.60;99.90
21563;DHT22;10942;47.894;11.424;2023-05-21T03:46:21;11.50;99.90
21563;DHT22;10942;47.894;11.424;2023-05-21T03:54:02;11.40;99.90
21563;DHT22;10942;47.894;11.424;2023-05-21T03:56:30;11.40;99.90
21563;DHT22;10942;47.894;11.424;2023-05-21T03:58:55;11.30;99.90
21563;DHT22;10942;47.894;11.424;2023-05-21T04:01:21;11.50;99.90
21563;DHT22;10942;47.894;11.424;2023-05-21T04:03:49;11.60;99.90
21563;DHT22;10942;47.894;11.424;2023-05-21T04:06:16;11.50;99.90
21563;DHT22;10942;47.894;11.424;2023-05-21T04:08:41;11.50;99.90
21563;DHT22;10942;47.894;11.424;2023-05-21T04:11:08;11.50;99.90
21563;DHT22;10942;47.894;11.424;2023-05-21T04:13:34;11.60;99.90
21563;DHT22;10942;47.894;11.424;2023-05-21T04:16:00;11.60;99.90
21563;DHT22;10942;47.894;11.424;2023-05-21T04:18:26;11.60;99.90
21563;DHT22;10942;47.894;11.424;2023-05-21T04:20:52;11.60;99.90
21563;DHT22;10942;47.894;11.424;2023-05-21T04:23:18;11.50;99.90
21563;DHT22;10942;47.894;11.424;2023-05-21T04:25:44;11.40;99.90
21563;DHT22;10942;47.894;11.424;2023-05-21T04:28:09;11.40;99.90
21563;DHT22;10942;47.894;11.424;2023-05-21T04:30:36;11.50;99.90
21563;DHT22;10942;47.894;11.424;2023-05-21T04:33:02;11.60;99.90
21563;DHT22;10942;47.894;11.424;2023-05-21T04:35:28;11.70;99.90
21563;DHT22;10942;47.894;11.424;2023-05-21T04:37:54;11.80;99.90
21563;DHT22;10942;47.894;11.424;2023-05-21T04:40:20;11.90;99.90
21563;DHT22;10942;47.894;11.424;2023-05-21T04:42:49;11.90;99.90
21563;DHT22;10942;47.894;11.424;2023-05-21T04:45:21;12.00;99.90
21563;DHT22;10942;47.894;11.424;2023-05-21T04:47:49;12.10;99.90
21563;DHT22;10942;47.894;11.424;2023-05-21T04:50:15;12.20;99.90
21563;DHT22;10942;47.894;11.424;2023-05-21T04:52:40;12.30;99.90
21563;DHT22;10942;47.894;11.424;2023-05-21T04:55:07;12.40;99.90
21563;DHT22;10942;47.894;11.424;2023-05-21T04:57:33;12.50;99.90
21563;DHT22;10942;47.894;11.424;2023-05-21T05:00:00;12.70;99.90
21563;DHT22;10942;47.894;11.424;2023-05-21T05:02:28;12.80;99.90
21563;DHT22;10942;47.894;11.424;2023-05-21T05:04:53;13.00;99.90
21563;DHT22;10942;47.894;11.424;2023-05-21T05:07:19;13.20;99.90
21563;DHT22;10942;47.894;11.424;2023-05-21T05:09:45;13.40;99.90
21563;DHT22;10942;47.894;11.424;2023-05-21T05:12:11;13.60;99.90
21563;DHT22;10942;47.894;11.424;2023-05-21T05:14:37;13.90;99.90
21563;DHT22;10942;47.894;11.424;2023-05-21T05:17:02;14.10;99.90
21563;DHT22;10942;47.894;11.424;2023-05-21T05:19:28;14.30;99.90
21563;DHT22;10942;47.894;11.424;2023-05-21T05:21:54;14.40;99.90
21563;DHT22;10942;47.894;11.424;2023-05-21T05:24:20;14.60;99.90
21563;DHT22;10942;47.894;11.424;2023-05-21T05:26:46;14.60;99.90
21563;DHT22;10942;47.894;11.424;2023-05-21T05:29:12;14.80;99.90
21563;DHT22;10942;47.894;11.424;2023-05-21T05:31:38;14.90;99.90
21563;DHT22;10942;47.894;11.424;2023-05-21T05:34:04;14.90;99.90
21563;DHT22;10942;47.894;11.424;2023-05-21T05:36:30;15.00;99.90
21563;DHT22;10942;47.894;11.424;2023-05-21T05:38:56;15.10;99.90
21563;DHT22;10942;47.894;11.424;2023-05-21T05:41:22;15.20;99.90
21563;DHT22;10942;47.894;11.424;2023-05-21T05:43:48;15.50;99.90
21563;DHT22;10942;47.894;11.424;2023-05-21T05:46:16;15.70;99.90
21563;DHT22;10942;47.894;11.424;2023-05-21T05:48:42;16.00;99.90
21563;DHT22;10942;47.894;11.424;2023-05-21T05:51:08;16.20;99.90
21563;DHT22;10942;47.894;11.424;2023-05-21T05:53:34;16.60;99.90
21563;DHT22;10942;47.894;11.424;2023-05-21T05:58:29;17.10;99.90
21563;DHT22;10942;47.894;11.424;2023-05-21T06:01:07;17.90;99.90
21563;DHT22;10942;47.894;11.424;2023-05-21T06:10:59;18.30;99.90
21563;DHT22;10942;47.894;11.424;2023-05-21T06:33:00;20.80;99.90
21563;DHT22;10942;47.894;11.424;2023-05-21T06:35:26;21.30;99.90
21563;DHT22;10942;47.894;11.424;2023-05-21T06:40:18;21.50;99.90
21563;DHT22;10942;47.894;11.424;2023-05-21T06:42:45;22.00;99.90
21563;DHT22;10942;47.894;11.424;2023-05-21T06:50:25;22.90;99.90
21563;DHT22;10942;47.894;11.424;2023-05-21T06:55:18;24.50;99.90
21563;DHT22;10942;47.894;11.424;2023-05-21T07:00:30;24.80;99.90
21563;DHT22;10942;47.894;11.424;2023-05-21T07:02:55;25.60;99.90
21563;DHT22;10942;47.894;11.424;2023-05-21T07:05:21;25.70;99.90
21563;DHT22;10942;47.894;11.424;2023-05-21T07:07:47;26.00;99.90
21563;DHT22;10942;47.894;11.424;2023-05-21T07:10:12;25.30;99.90
21563;DHT22;10942;47.894;11.424;2023-05-21T07:12:38;25.90;99.90
21563;DHT22;10942;47.894;11.424;2023-05-21T07:15:05;26.00;99.90
21563;DHT22;10942;47.894;11.424;2023-05-21T07:17:32;26.20;99.90
21563;DHT22;10942;47.894;11.424;2023-05-21T22:11:31;16.20;99.90
21563;DHT22;10942;47.894;11.424;2023-05-21T22:13:57;16.10;99.90
21563;DHT22;10942;47.894;11.424;2023-05-21T22:16:25;15.90;99.90
21563;DHT22;10942;47.894;11.424;2023-05-21T22:18:52;16.00;99.90
21563;DHT22;10942;47.894;11.424;2023-05-21T22:21:19;15.90;99.90
21563;DHT22;10942;47.894;11.424;2023-05-21T22:23:45;15.90;99.90
21563;DHT22;10942;47.894;11.424;2023-05-21T22:26:11;15.90;99.90
21563;DHT22;10942;47.894;11.424;2023-05-21T22:28:37;15.90;99.90
21563;DHT22;10942;47.894;11.424;2023-05-21T22:31:02;15.80;99.90
21563;DHT22;10942;47.894;11.424;2023-05-21T22:33:28;15.70;99.90
21563;DHT22;10942;47.894;11.424;2023-05-21T22:35:54;15.60;99.90
21563;DHT22;10942;47.894;11.424;2023-05-21T22:38:21;15.60;99.90
21563;DHT22;10942;47.894;11.424;2023-05-21T22:40:46;15.50;99.90
21563;DHT22;10942;47.894;11.424;2023-05-21T22:43:12;15.50;99.90
21563;DHT22;10942;47.894;11.424;2023-05-21T22:45:38;15.50;99.90
21563;DHT22;10942;47.894;11.424;2023-05-21T22:48:05;15.40;99.90
21563;DHT22;10942;47.894;11.424;2023-05-21T22:50:33;15.40;99.90
21563;DHT22;10942;47.894;11.424;2023-05-21T22:52:59;15.30;99.90
21563;DHT22;10942;47.894;11.424;2023-05-21T22:55:25;15.30;99.90
21563;DHT22;10942;47.894;11.424;2023-05-21T22:57:50;15.30;99.90
21563;DHT22;10942;47.894;11.424;2023-05-21T23:00:17;15.30;99.90
